Observations for CARDIFF-WALES ARPT, United Kingdom (EGFF)

EGFF 112320Z AUTO 11011KT 9999 BKN022 OVC029 08/07 Q1019
EGFF 112250Z AUTO 11011KT 9999 OVC032 08/08 Q1019   
EGFF 112220Z AUTO 12012KT 9999 FEW025 OVC030 08/08 Q1019
EGFF 112150Z AUTO 11010KT 9999 SCT022 OVC027 08/08 Q1019
EGFF 112120Z AUTO 11010KT 9999 BKN025 OVC030 08/08 Q1019
EGFF 112050Z AUTO 10010KT 9999 SCT023 BKN028 08/08 Q1019
EGFF 112020Z AUTO 11011KT 9999 SCT023 BKN028 08/08 Q1019
EGFF 111950Z AUTO 13012KT 9999 BKN021 OVC028 09/08 Q1019
EGFF 111920Z AUTO 12009KT 9999 BKN020 OVC025 09/08 Q1019
EGFF 111850Z AUTO 11009KT 9999 OVC023 09/08 Q1020   
EGFF 111820Z AUTO 11006KT 9999 BKN025 BKN032 08/08 Q1020
EGFF 111750Z AUTO 11007KT 9999 BKN021 BKN025 09/08 Q1020
EGFF 111720Z AUTO 13008KT 9999 BKN021 09/08 Q1020   
EGFF 111650Z AUTO 12008KT 9999 BKN020 OVC033 09/09 Q1020
EGFF 111620Z AUTO 12009KT 9999 BKN020 OVC024 09/09 Q1020
EGFF 111550Z AUTO 11009KT 9999 BKN019 OVC027 09/09 Q1020
EGFF 111520Z AUTO 12010KT 9999 BKN020 OVC030 09/09 Q1020
EGFF 111450Z AUTO 12010KT 9999 FEW022 SCT027 BKN033 09/09 Q1021 
EGFF 111420Z AUTO 12011KT 9999 BKN023 OVC030 09/09 Q1021
EGFF 111350Z AUTO 13011KT 9999 SCT006 BKN025 OVC029 09/09 Q1021 RERA REDZ   
EGFF 111320Z 12009KT 3400 RADZ BKN012 BKN016 BKN026 08/08 Q1022 
EGFF 111250Z AUTO 13009KT 9999 BKN019 OVC026 08/08 Q1022
EGFF 111220Z AUTO 13010KT 9999 OVC026 08/08 Q1022   
EGFF 111150Z AUTO 13010KT 9999 BKN003 BKN031 09/09 Q1022
EGFF 111120Z AUTO 13011KT 9999 BKN003 OVC033 08/08 Q1023
EGFF 111050Z AUTO 14010KT 9999 OVC004 08/08 Q1023   
EGFF 111020Z AUTO 13009KT 9999 BKN003 OVC022 08/08 Q1024 RERA REDZ  
EGFF 110950Z AUTO 13009KT 1400 R12/P1500 RADZ BKN003 OVC008 08/08 Q1024 
EGFF 110920Z AUTO 12007KT 1800 -DZ BKN001 OVC013 08/08 Q1024 RERA REDZ  
EGFF 110850Z AUTO 13007KT 4500 RADZ BKN003 OVC014 08/08 Q1024   
EGFF 110820Z AUTO 11007KT 080V140 9999 BKN004 OVC035 08/08 Q1024
EGFF 110750Z AUTO 11006KT 9999 FEW004 OVC030 08/08 Q1024
EGFF 110720Z AUTO 10007KT 9999 OVC030 07/07 Q1024   
EGFF 110650Z AUTO 11006KT 9000 OVC033 07/07 Q1024   
EGFF 110620Z AUTO 12007KT 9000 OVC032 07/07 Q1024   
EGFF 110550Z AUTO 12008KT 7000 OVC033 07/07 Q1024   
EGFF 110520Z AUTO 12006KT 7000 OVC034 07/07 Q1024   
EGFF 110450Z AUTO 13006KT 7000 OVC034 07/07 Q1024   
EGFF 110420Z AUTO 13006KT 5000 BR OVC035 07/07 Q1025
EGFF 110350Z AUTO 13006KT 6000 OVC035 07/07 Q1025   
EGFF 110320Z AUTO 13007KT 6000 OVC034 07/07 Q1025   
EGFF 110250Z AUTO 12007KT 7000 OVC033 07/07 Q1025   
EGFF 110220Z AUTO 10005KT 7000 OVC032 07/07 Q1026   
EGFF 110150Z AUTO 12005KT 9999 BKN020 BKN025 OVC030 08/08 Q1026 
EGFF 110120Z AUTO 15003KT 9999 SCT019 OVC035 07/07 Q1026
EGFF 110050Z AUTO VRB02KT 9999 OVC037 08/07 Q1026   
EGFF 110020Z AUTO 22002KT 9999 SCT020 OVC035 08/08 Q1027
EGFF 102350Z AUTO 17004KT 9999 OVC032 08/07 Q1027   
EGFF 102320Z AUTO 18003KT 9999 SCT023 OVC030 08/08 Q1027
EGFF 102250Z AUTO 20004KT 9999 FEW023 SCT027 OVC031 08/08 Q1027